Time;durP1;ratioP1;P1;durP2;ratioP2;P2;SDS_P1;SDS_P2;PMS_P1;PMS_P2;Temp;Humidity;BMP_temperature;BMP_pressure;BME280_temperature;BME280_humidity;BME280_pressure;Samples;Min_cycle;Max_cycle;Signal;HPM_P1;HPM_P2
2022/08/02 00:02:43;;;;;;;1999.90;999.90;;;;;;;16.98;82.62;99541.16;9994487;23;20161;-76
2022/08/02 00:06:45;;;;;;;1999.90;999.90;;;;;;;16.96;82.73;99535.97;10022406;23;20261;-76
2022/08/02 00:10:46;;;;;;;1999.90;999.90;;;;;;;16.94;82.89;99539.53;10023801;23;20022;-76
2022/08/02 00:14:48;;;;;;;1999.90;999.90;;;;;;;16.88;82.95;99540.56;10024168;23;20019;-76
2022/08/02 00:18:49;;;;;;;1999.90;999.90;;;;;;;16.75;83.06;99537.41;9994029;23;20046;-76
2022/08/02 00:22:51;;;;;;;1999.90;999.90;;;;;;;16.65;84.08;99541.16;10023783;23;20030;-76
2022/08/02 00:26:53;;;;;;;1999.90;999.90;;;;;;;16.61;84.01;99542.13;10020742;23;20277;-76
2022/08/02 00:30:56;;;;;;;1999.90;999.90;;;;;;;16.59;84.13;99528.22;9994349;23;20030;-76
2022/08/02 00:34:57;;;;;;;1999.90;999.90;;;;;;;16.52;84.35;99529.28;9996652;23;20301;-76
2022/08/02 00:38:59;;;;;;;1999.90;999.90;;;;;;;16.48;84.23;99531.09;9997052;23;20034;-76
2022/08/02 00:43:03;;;;;;;1999.90;999.90;;;;;;;16.42;84.52;99531.28;9996946;23;20131;-76
2022/08/02 00:47:05;;;;;;;1999.90;999.90;;;;;;;16.36;84.75;99533.19;10016686;23;20034;-76
2022/08/02 00:51:07;;;;;;;1999.90;999.90;;;;;;;16.33;84.66;99534.13;9995304;23;20023;-76
2022/08/02 00:55:08;;;;;;;1999.90;999.90;;;;;;;16.28;84.95;99534.25;10016634;23;20126;-76
2022/08/02 00:59:12;;;;;;;1999.90;999.90;;;;;;;16.16;85.40;99534.56;9997530;23;20402;-76
2022/08/02 01:03:15;;;;;;;1999.90;999.90;;;;;;;16.14;86.04;99535.47;10016058;23;20035;-76
2022/08/02 01:07:17;;;;;;;1999.90;999.90;;;;;;;16.11;86.31;99540.78;10022980;23;20686;-76
2022/08/02 01:11:18;;;;;;;1999.90;999.90;;;;;;;16.09;86.15;99546.06;10024318;23;20027;-76
2022/08/02 01:15:21;;;;;;;1999.90;999.90;;;;;;;15.99;86.41;99548.06;9993948;23;20536;-76
2022/08/02 01:19:45;;;;;;;1999.90;999.90;;;;;;;15.99;86.69;99552.44;10002281;23;20069;-76
2022/08/02 01:23:59;;;;;;;1999.90;999.90;;;;;;;16.00;86.17;99544.56;10039104;23;20110;-76
2022/08/02 01:28:25;;;;;;;1999.90;999.90;;;;;;;15.97;86.64;99544.59;10040490;23;20672;-76
2022/08/02 01:32:35;;;;;;;1999.90;999.90;;;;;;;15.99;86.50;99550.69;10022012;23;20026;-75
2022/08/02 01:36:41;;;;;;;1999.90;999.90;;;;;;;15.94;86.54;99546.44;9999430;23;20065;-76
2022/08/02 01:40:44;;;;;;;1999.90;999.90;;;;;;;15.92;86.17;99553.47;10001190;23;20034;-75
2022/08/02 01:44:48;;;;;;;1999.90;999.90;;;;;;;15.88;86.15;99544.84;10025890;23;20050;-76
2022/08/02 01:48:53;;;;;;;1999.90;999.90;;;;;;;15.82;85.95;99549.38;9969930;23;20026;-76
2022/08/02 01:52:58;;;;;;;1999.90;999.90;;;;;;;15.79;86.51;99554.66;10024772;23;20022;-76
2022/08/02 01:57:04;;;;;;;1999.90;999.90;;;;;;;15.66;87.31;99552.31;10025873;23;20030;-76
2022/08/02 02:01:10;;;;;;;1999.90;999.90;;;;;;;15.60;88.07;99543.72;10021624;23;20031;-76
2022/08/02 02:05:21;;;;;;;1999.90;999.90;;;;;;;15.56;87.86;99540.28;10030842;23;20073;-76
2022/08/02 02:09:28;;;;;;;1999.90;999.90;;;;;;;15.61;87.73;99537.59;10030902;23;20022;-76
2022/08/02 02:13:30;;;;;;;1999.90;999.90;;;;;;;15.60;87.59;99539.34;9981573;23;20426;-76
2022/08/02 02:17:35;;;;;;;1999.90;999.90;;;;;;;15.51;87.45;99539.53;10025313;23;20398;-76
2022/08/02 02:21:56;;;;;;;1999.90;999.90;;;;;;;15.45;87.73;99538.81;10029829;23;20054;-76
2022/08/02 02:25:59;;;;;;;1999.90;999.90;;;;;;;15.40;88.14;99526.69;10030300;23;20089;-76
2022/08/02 02:30:05;;;;;;;1999.90;999.90;;;;;;;15.45;88.37;99523.13;10027275;23;20023;-76
2022/08/02 02:34:19;;;;;;;1999.90;999.90;;;;;;;15.48;88.10;99520.44;10027660;23;20034;-76
2022/08/02 02:38:21;;;;;;;1999.90;999.90;;;;;;;15.43;87.96;99525.75;10029685;23;20300;-77
2022/08/02 02:42:28;;;;;;;1999.90;999.90;;;;;;;15.39;88.21;99522.34;10028894;23;20026;-77
2022/08/02 02:46:32;;;;;;;1999.90;999.90;;;;;;;15.45;88.30;99523.13;9998854;23;20133;-76
2022/08/02 02:50:35;;;;;;;1999.90;999.90;;;;;;;15.45;88.09;99520.50;10045004;23;20026;-76
2022/08/02 02:54:37;;;;;;;1999.90;999.90;;;;;;;15.41;87.80;99525.78;10005253;23;20030;-77
2022/08/02 02:58:39;;;;;;;1999.90;999.90;;;;;;;15.35;88.05;99527.69;10028370;23;20054;-77
2022/08/02 03:02:43;;;;;;;1999.90;999.90;;;;;;;15.30;87.95;99534.78;10024809;23;20027;-77
2022/08/02 03:06:45;;;;;;;1999.90;999.90;;;;;;;15.26;88.32;99535.72;10002277;23;20018;-77
2022/08/02 03:10:47;;;;;;;1999.90;999.90;;;;;;;15.20;88.47;99535.84;9999549;23;20126;-77
2022/08/02 03:14:48;;;;;;;1999.90;999.90;;;;;;;15.12;88.86;99541.25;10024896;23;20057;-77
2022/08/02 03:18:50;;;;;;;1999.90;999.90;;;;;;;15.08;89.12;99540.47;10019475;23;20027;-77
2022/08/02 03:22:52;;;;;;;1999.90;999.90;;;;;;;15.07;89.53;99535.22;10000452;23;20369;-76
2022/08/02 03:26:54;;;;;;;1999.90;999.90;;;;;;;15.10;89.50;99530.81;9997349;23;20022;-76
2022/08/02 03:30:56;;;;;;;1999.90;999.90;;;;;;;15.11;89.63;99536.91;10017085;23;20057;-77
2022/08/02 03:34:57;;;;;;;1999.90;999.90;;;;;;;15.10;89.41;99530.81;9975572;23;20022;-77
2022/08/02 03:39:00;;;;;;;1999.90;999.90;;;;;;;15.15;89.03;99533.34;9997683;23;20081;-77
2022/08/02 03:43:02;;;;;;;1999.90;999.90;;;;;;;15.07;88.73;99525.63;10022109;23;20356;-77
2022/08/02 03:47:06;;;;;;;1999.90;999.90;;;;;;;15.07;88.65;99527.38;10018388;23;20030;-77
2022/08/02 03:51:09;;;;;;;1999.90;999.90;;;;;;;15.09;88.65;99531.72;10024264;23;20038;-76
2022/08/02 03:55:12;;;;;;;1999.90;999.90;;;;;;;15.06;88.38;99534.38;9997426;23;20023;-76
2022/08/02 03:59:14;;;;;;;1999.90;999.90;;;;;;;15.03;88.83;99533.59;10023668;23;20029;-77
2022/08/02 04:03:15;;;;;;;1999.90;999.90;;;;;;;15.02;89.15;99545.78;10022635;23;20109;-77
2022/08/02 04:07:20;;;;;;;1999.90;999.90;;;;;;;14.97;88.94;99536.31;10022859;23;20022;-76
2022/08/02 04:11:41;;;;;;;1999.90;999.90;;;;;;;14.90;88.84;99534.69;10022864;23;20023;-77
2022/08/02 04:15:44;;;;;;;1999.90;999.90;;;;;;;14.89;89.03;99526.00;9992715;23;20031;-76
2022/08/02 04:19:51;;;;;;;1999.90;999.90;;;;;;;14.89;88.66;99527.75;10014041;23;20289;-77
2022/08/02 04:23:54;;;;;;;1999.90;999.90;;;;;;;14.88;88.44;99534.75;10024008;23;20046;-77
2022/08/02 04:27:59;;;;;;;1999.90;999.90;;;;;;;14.84;89.26;99532.22;10039443;23;20033;-77
2022/08/02 04:32:20;;;;;;;1999.90;999.90;;;;;;;14.83;89.31;99536.59;10016918;23;20035;-77
2022/08/02 04:36:23;;;;;;;1999.90;999.90;;;;;;;14.86;89.65;99538.28;9996155;23;20023;-77
2022/08/02 04:40:32;;;;;;;1999.90;999.90;;;;;;;14.94;89.63;99537.25;9977133;23;20121;-77
2022/08/02 04:44:34;;;;;;;1999.90;999.90;;;;;;;14.92;89.66;99546.88;10022623;23;20022;-77
2022/08/02 04:48:35;;;;;;;1999.90;999.90;;;;;;;14.94;89.98;99541.63;10016197;23;20027;-77
2022/08/02 04:52:37;;;;;;;1999.90;999.90;;;;;;;15.01;90.01;99544.06;9997650;23;20122;-77
2022/08/02 04:56:44;;;;;;;1999.90;999.90;;;;;;;15.16;89.96;99547.28;9999135;23;20031;-77
2022/08/02 05:00:45;;;;;;;1999.90;999.90;;;;;;;15.28;89.01;99549.66;9998556;23;20018;-77
2022/08/02 05:04:47;;;;;;;1999.90;999.90;;;;;;;15.37;89.38;99541.59;9996582;23;20888;-76
2022/08/02 05:08:49;;;;;;;1999.90;999.90;;;;;;;15.37;89.03;99542.44;10024204;23;20265;-77
2022/08/02 05:12:53;;;;;;;1999.90;999.90;;;;;;;15.47;88.95;99550.97;10022756;23;20022;-77
2022/08/02 05:16:55;;;;;;;1999.90;999.90;;;;;;;15.69;88.84;99559.25;9993831;23;20115;-77
2022/08/02 05:20:56;;;;;;;1999.90;999.90;;;;;;;16.04;87.64;99550.56;9998533;23;20493;-76
2022/08/02 05:24:58;;;;;;;1999.90;999.90;;;;;;;16.24;86.20;99548.31;9996672;23;20732;-76
2022/08/02 05:29:00;;;;;;;1999.90;999.90;;;;;;;16.56;85.41;99562.38;10021757;23;20047;-76
2022/08/02 05:33:03;;;;;;;1999.90;999.90;;;;;;;16.99;82.75;99561.25;9993323;23;20082;-76
2022/08/02 05:37:04;;;;;;;1999.90;999.90;;;;;;;17.00;82.82;99563.81;10023683;23;20023;-76
2022/08/02 05:41:10;;;;;;;1999.90;999.90;;;;;;;17.73;80.54;99566.97;9999975;23;20090;-76
2022/08/02 05:45:11;;;;;;;1999.90;999.90;;;;;;;18.41;78.00;99570.91;10023034;23;20057;-76
2022/08/02 05:49:13;;;;;;;1999.90;999.90;;;;;;;18.76;75.85;99564.50;10002905;23;20261;-76
2022/08/02 05:53:23;;;;;;;;;;;;;;;18.97;74.88;99560.22;10023640;23;20033;-76
2022/08/02 05:57:45;;;;;;;1999.90;999.90;;;;;;;19.14;74.03;99568.38;10018913;23;19968;-76
2022/08/02 06:01:50;;;;;;;1999.90;999.90;;;;;;;19.49;73.17;99568.84;9996242;23;20362;-77
2022/08/02 06:05:59;;;;;;;1999.90;999.90;;;;;;;19.96;71.43;99568.81;10016399;23;20019;-77
2022/08/02 06:10:03;;;;;;;1999.90;999.90;;;;;;;20.42;69.54;99566.03;10028452;23;20645;-77
2022/08/02 06:14:06;;;;;;;1999.90;999.90;;;;;;;20.92;67.70;99562.16;10001145;23;20441;-76
2022/08/02 06:18:08;;;;;;;1999.90;999.90;;;;;;;21.39;66.48;99566.22;9999491;23;20330;-77
2022/08/02 06:22:15;;;;;;;1999.90;999.90;;;;;;;21.81;64.93;99569.56;10030682;23;20023;-77
2022/08/02 06:26:36;;;;;;;1999.90;999.90;;;;;;;22.26;63.35;99564.75;10003984;23;20056;-77
2022/08/02 06:30:39;;;;;;;1999.90;999.90;;;;;;;22.70;61.90;99571.38;9999620;23;20019;-77
2022/08/02 06:34:41;;;;;;;1999.90;999.90;;;;;;;23.00;60.33;99564.53;10031557;23;20023;-77
2022/08/02 06:38:54;;;;;;;1999.90;999.90;;;;;;;23.33;59.52;99564.50;10004806;23;20052;-77
2022/08/02 06:43:16;;;;;;;1999.90;999.90;;;;;;;22.86;60.24;99559.94;10028598;23;20042;-77
2022/08/02 06:47:17;;;;;;;1999.90;999.90;;;;;;;22.22;62.00;99557.00;9997091;23;20026;-77
2022/08/02 06:51:19;;;;;;;;;;;;;;;22.41;61.79;99557.81;10004363;23;20037;-77
2022/08/02 06:55:21;;;;;;;1999.90;999.90;;;;;;;22.58;61.70;99554.31;10003779;23;19922;-77
2022/08/02 06:59:22;;;;;;;1999.90;999.90;;;;;;;22.77;61.36;99544.47;10024560;23;20057;-76
2022/08/02 07:03:24;;;;;;;1999.90;999.90;;;;;;;22.36;61.92;99557.19;9994985;23;20496;-76
2022/08/02 07:07:26;;;;;;;1999.90;999.90;;;;;;;22.06;62.92;99564.84;10023613;23;20090;-76
2022/08/02 07:11:28;;;;;;;1999.90;999.90;;;;;;;22.82;60.99;99576.94;9996330;23;20034;-76
2022/08/02 07:15:29;;;;;;;1999.90;999.90;;;;;;;23.13;59.43;99568.22;9991867;23;20050;-76
2022/08/02 07:19:31;;;;;;;1999.90;999.90;;;;;;;23.72;57.87;99564.16;10022530;23;20106;-76
2022/08/02 07:23:38;;;;;;;1999.90;999.90;;;;;;;23.91;56.76;99576.41;10035400;23;20048;-76
2022/08/02 07:27:40;;;;;;;1999.90;999.90;;;;;;;23.99;56.12;99567.06;9996080;23;20022;-75
2022/08/02 07:31:41;;;;;;;;;;;;;;;24.34;55.51;99565.06;9968724;23;20150;-75
2022/08/02 07:35:43;;;;;;;1999.90;999.90;;;;;;;24.80;54.08;99561.50;9996156;23;19922;-75
2022/08/02 07:39:48;;;;;;;1999.90;999.90;;;;;;;25.13;52.86;99559.47;9997008;23;20402;-75
2022/08/02 07:43:51;;;;;;;1999.90;999.90;;;;;;;25.42;51.98;99560.31;10033102;23;20497;-75
2022/08/02 07:47:53;;;;;;;1999.90;999.90;;;;;;;25.65;51.34;99555.34;10019953;23;20394;-75
2022/08/02 07:51:55;;;;;;;1999.90;999.90;;;;;;;25.89;50.52;99554.69;10036413;23;20023;-76
2022/08/02 07:55:56;;;;;;;1999.90;999.90;;;;;;;26.17;49.98;99553.72;10021063;23;20023;-76
2022/08/02 07:59:58;;;;;;;1999.90;999.90;;;;;;;26.39;49.26;99542.53;10008692;23;20058;-76
2022/08/02 08:03:59;;;;;;;1999.90;999.90;;;;;;;26.59;48.66;99551.00;10013402;23;20034;-76
2022/08/02 08:08:02;;;;;;;1999.90;999.90;;;;;;;26.85;47.92;99541.19;10010249;23;20019;-76
2022/08/02 08:12:05;;;;;;;1999.90;999.90;;;;;;;26.68;47.05;99545.88;9992611;23;20118;-76
2022/08/02 08:16:06;;;;;;;1999.90;999.90;;;;;;;26.91;47.73;99538.94;9989483;23;20393;-76
2022/08/02 08:20:08;;;;;;;1999.90;999.90;;;;;;;27.25;47.21;99545.47;9995017;23;20050;-77
2022/08/02 08:24:16;;;;;;;1999.90;999.90;;;;;;;27.48;45.14;99548.34;10035836;23;20786;-77
2022/08/02 08:28:17;;;;;;;1999.90;999.90;;;;;;;27.50;44.99;99552.59;10019618;23;20399;-77
2022/08/02 08:32:19;;;;;;;1999.90;999.90;;;;;;;27.60;44.76;99542.09;10015929;23;20031;-76
2022/08/02 08:36:21;;;;;;;1999.90;999.90;;;;;;;27.96;44.98;99549.28;10019722;23;20023;-77
2022/08/02 08:40:24;;;;;;;1999.90;999.90;;;;;;;28.21;44.43;99545.66;10020970;23;20130;-77
2022/08/02 08:44:27;;;;;;;1999.90;999.90;;;;;;;28.37;43.96;99548.94;10021010;23;20398;-77
2022/08/02 08:48:31;;;;;;;1999.90;999.90;;;;;;;28.71;43.42;99546.34;10020515;23;20059;-77
2022/08/02 08:52:38;;;;;;;1999.90;999.90;;;;;;;28.91;43.06;99550.19;9996031;23;20085;-77
2022/08/02 08:56:41;;;;;;;1999.90;999.90;;;;;;;28.94;41.91;99544.59;10035716;23;20023;-77
2022/08/02 09:00:43;;;;;;;1999.90;999.90;;;;;;;29.05;41.68;99542.78;10015976;23;20023;-77
2022/08/02 09:04:44;;;;;;;1999.90;999.90;;;;;;;29.25;41.21;99538.53;10022455;23;20019;-77
2022/08/02 09:08:55;;;;;;;1999.90;999.90;;;;;;;29.47;40.71;99543.09;10020604;23;20023;-77
2022/08/02 09:13:30;;;;;;;1999.90;999.90;;;;;;;29.57;40.13;99538.66;10012495;23;20027;-76
2022/08/02 09:17:50;;;;;;;1999.90;999.90;;;;;;;29.76;39.04;99535.34;10013308;23;20193;-77
2022/08/02 09:22:01;;;;;;;1999.90;999.90;;;;;;;29.92;38.65;99538.47;9995461;23;20027;-77
2022/08/02 09:26:13;;;;;;;;;;;;;;;29.76;37.26;99530.84;10023339;23;20030;-77
2022/08/02 09:30:15;;;;;;;;;;;;;;;29.85;37.29;99529.25;10019860;23;19921;-77
2022/08/02 09:34:17;;;;;;;1999.90;999.90;;;;;;;29.87;38.42;99532.66;10020891;23;19933;-77
2022/08/02 09:38:20;;;;;;;1999.90;999.90;;;;;;;29.95;37.97;99523.97;9999147;23;20596;-77
2022/08/02 09:42:22;;;;;;;1999.90;999.90;;;;;;;30.17;37.96;99525.78;9995210;23;20050;-77
2022/08/02 09:46:36;;;;;;;1999.90;999.90;;;;;;;30.34;37.15;99523.41;10020340;23;20034;-77
2022/08/02 09:50:40;;;;;;;1999.90;999.90;;;;;;;30.28;35.88;99523.03;10021144;23;20019;-76
2022/08/02 09:54:42;;;;;;;1999.90;999.90;;;;;;;30.19;34.66;99524.69;9997314;23;20023;-75
2022/08/02 09:58:44;;;;;;;1999.90;999.90;;;;;;;29.96;35.10;99523.84;9997438;23;20026;-75
2022/08/02 10:03:09;;;;;;;1999.90;999.90;;;;;;;30.21;36.32;99527.22;9992682;23;20122;-75
2022/08/02 10:07:22;;;;;;;1999.90;999.90;;;;;;;30.48;36.44;99524.03;10024594;23;20047;-76
2022/08/02 10:11:26;;;;;;;1999.90;999.90;;;;;;;30.67;35.75;99517.00;10024191;23;20022;-75
2022/08/02 10:15:28;;;;;;;1999.90;999.90;;;;;;;30.33;35.04;99516.31;10019182;23;20486;-77
2022/08/02 10:19:30;;;;;;;1999.90;999.90;;;;;;;30.41;34.90;99509.47;10022608;23;20069;-77
2022/08/02 10:23:53;;;;;;;1999.90;999.90;;;;;;;30.55;35.91;99498.44;10001324;23;20130;-77
2022/08/02 10:27:56;;;;;;;1999.90;999.90;;;;;;;30.88;35.10;99500.06;10042031;23;20022;-78
2022/08/02 10:32:32;;;;;;;1999.90;999.90;;;;;;;30.52;34.68;99496.88;10032679;23;20097;-77
2022/08/02 10:36:36;;;;;;;1999.90;999.90;;;;;;;30.06;35.13;99491.84;10020700;23;20113;-77
2022/08/02 10:40:46;;;;;;;1999.90;999.90;;;;;;;29.79;35.59;99490.44;9994797;23;20061;-76
2022/08/02 10:45:07;;;;;;;1999.90;999.90;;;;;;;29.66;36.55;99488.91;9995406;23;20026;-76
2022/08/02 10:49:08;;;;;;;1999.90;999.90;;;;;;;29.18;37.19;99482.00;10019796;23;20031;-76
2022/08/02 10:53:31;;;;;;;1999.90;999.90;;;;;;;28.94;36.87;99477.78;10000724;23;20376;-76
2022/08/02 10:57:36;;;;;;;1999.90;999.90;;;;;;;28.67;38.59;99472.72;9995001;23;20029;-76
2022/08/02 11:01:42;;;;;;;1999.90;999.90;;;;;;;28.44;39.20;99479.84;9997674;23;20540;-74
2022/08/02 11:06:03;;;;;;;1999.90;999.90;;;;;;;28.34;39.88;99465.47;10020709;23;20015;-74
2022/08/02 11:10:29;;;;;;;1999.90;999.90;;;;;;;28.74;39.09;99460.59;10022981;23;20027;-74
2022/08/02 11:14:32;;;;;;;1999.90;999.90;;;;;;;29.28;37.94;99454.53;10021820;23;20023;-74
2022/08/02 11:18:57;;;;;;;1999.90;999.90;;;;;;;29.93;36.41;99457.16;10019292;23;20502;-74
2022/08/02 11:23:37;;;;;;;1999.90;999.90;;;;;;;30.38;35.29;99452.47;9985652;23;20038;-74
2022/08/02 11:27:46;;;;;;;1999.90;999.90;;;;;;;30.74;34.39;99446.78;10021348;23;20091;-74
2022/08/02 11:31:48;;;;;;;1999.90;999.90;;;;;;;30.69;33.03;99447.16;10016742;23;20047;-74
2022/08/02 11:35:50;;;;;;;1999.90;999.90;;;;;;;30.91;33.08;99446.16;9995215;23;20121;-75
2022/08/02 11:39:51;;;;;;;1999.90;999.90;;;;;;;31.12;32.83;99454.16;10022041;23;20116;-74
2022/08/02 11:43:54;;;;;;;1999.90;999.90;;;;;;;31.05;31.01;99452.97;10021953;23;20050;-73
2022/08/02 11:47:56;;;;;;;1999.90;999.90;;;;;;;30.85;30.61;99450.22;10022877;23;20118;-74
2022/08/02 11:52:06;;;;;;;1999.90;999.90;;;;;;;30.91;30.83;99449.69;10022445;23;20022;-74
2022/08/02 11:56:09;;;;;;;1999.90;999.90;;;;;;;31.18;30.83;99437.53;10021825;23;20121;-73
2022/08/02 12:00:16;;;;;;;1999.90;999.90;;;;;;;31.16;28.77;99432.28;10017995;23;20027;-73
2022/08/02 12:04:18;;;;;;;1999.90;999.90;;;;;;;31.50;29.78;99438.19;10020830;23;20031;-73
2022/08/02 12:08:24;;;;;;;1999.90;999.90;;;;;;;31.59;29.30;99431.13;10021940;23;20415;-74
2022/08/02 12:12:27;;;;;;;1999.90;999.90;;;;;;;31.73;30.10;99417.31;10021600;23;20126;-75
2022/08/02 12:20:56;;;;;;;1999.90;999.90;;;;;;;31.66;28.96;99408.09;9997118;23;20031;-75
2022/08/02 12:24:58;;;;;;;1999.90;999.90;;;;;;;31.44;29.17;99416.44;9995589;23;20501;-75
2022/08/02 12:29:00;;;;;;;1999.90;999.90;;;;;;;31.29;29.56;99410.59;9996775;23;20102;-75
2022/08/02 12:33:08;;;;;;;1999.90;999.90;;;;;;;31.46;29.58;99401.03;9991315;23;20878;-75
2022/08/02 12:37:13;;;;;;;1999.90;999.90;;;;;;;31.81;30.77;99397.84;9972182;23;20037;-75
2022/08/02 12:41:15;;;;;;;1999.90;999.90;;;;;;;31.78;27.74;99404.34;10019479;23;20414;-75
2022/08/02 12:45:53;;;;;;;1999.90;999.90;;;;;;;31.79;29.39;99399.81;9994645;23;20145;-74
2022/08/02 12:50:15;;;;;;;1999.90;999.90;;;;;;;32.03;29.13;99391.31;10021334;23;20944;-74
2022/08/02 12:54:19;;;;;;;1999.90;999.90;;;;;;;31.88;28.20;99393.56;10021140;23;20018;-75
2022/08/02 12:58:48;;;;;;;1999.90;999.90;;;;;;;31.99;29.34;99396.13;9995504;23;20096;-75
2022/08/02 13:02:49;;;;;;;1999.90;999.90;;;;;;;31.85;30.08;99389.34;10019697;23;20022;-75
2022/08/02 13:06:51;;;;;;;1999.90;999.90;;;;;;;31.90;29.40;99380.84;10019560;23;20029;-75
2022/08/02 13:10:52;;;;;;;1999.90;999.90;;;;;;;32.12;31.19;99377.00;10019841;23;20023;-75
2022/08/02 13:14:54;;;;;;;1999.90;999.90;;;;;;;32.33;29.85;99374.19;10020953;23;20052;-75
2022/08/02 13:18:55;;;;;;;1999.90;999.90;;;;;;;32.39;29.37;99370.91;9993140;23;20054;-74
2022/08/02 13:22:57;;;;;;;1999.90;999.90;;;;;;;32.50;29.35;99368.03;9999487;23;20026;-73
2022/08/02 13:27:04;;;;;;;1999.90;999.90;;;;;;;32.66;28.71;99372.75;10002290;23;20488;-73
2022/08/02 13:31:09;;;;;;;1999.90;999.90;;;;;;;32.66;29.24;99373.63;10019524;23;20031;-73
2022/08/02 13:35:31;;;;;;;1999.90;999.90;;;;;;;32.60;27.96;99373.38;10024095;23;20034;-73
2022/08/02 13:39:32;;;;;;;1999.90;999.90;;;;;;;32.37;26.87;99365.66;10024741;23;20122;-73
2022/08/02 13:43:35;;;;;;;1999.90;999.90;;;;;;;32.20;27.09;99361.00;9999734;23;20026;-73
2022/08/02 13:47:55;;;;;;;1999.90;999.90;;;;;;;32.23;27.05;99357.19;10021307;23;20026;-73
2022/08/02 13:52:05;;;;;;;1999.90;999.90;;;;;;;32.28;26.97;99352.25;10039375;23;20722;-73
2022/08/02 13:56:07;;;;;;;1999.90;999.90;;;;;;;32.15;27.33;99349.88;10025362;23;20109;-73
2022/08/02 14:00:09;;;;;;;1999.90;999.90;;;;;;;32.16;27.85;99335.44;10019156;23;20037;-73
2022/08/02 14:04:11;;;;;;;1999.90;999.90;;;;;;;32.32;28.70;99341.09;10023526;23;20423;-73
2022/08/02 14:08:13;;;;;;;1999.90;999.90;;;;;;;32.45;27.71;99325.44;10025060;23;20025;-73
2022/08/02 14:12:17;;;;;;;1999.90;999.90;;;;;;;32.37;26.91;99333.41;10025157;23;20023;-73
2022/08/02 14:16:19;;;;;;;1999.90;999.90;;;;;;;32.34;27.70;99331.03;9996492;23;20676;-73
2022/08/02 14:20:20;;;;;;;1999.90;999.90;;;;;;;32.20;27.16;99330.59;10025155;23;20107;-73
2022/08/02 14:24:30;;;;;;;1999.90;999.90;;;;;;;32.17;28.12;99329.06;10040151;23;20026;-73
2022/08/02 14:28:32;;;;;;;1999.90;999.90;;;;;;;32.20;28.79;99319.84;10024241;23;20366;-73
2022/08/02 14:32:33;;;;;;;1999.90;999.90;;;;;;;32.23;28.46;99320.41;10016923;23;20801;-73
2022/08/02 14:36:37;;;;;;;1999.90;999.90;;;;;;;32.33;29.02;99315.88;10020415;23;20098;-73
2022/08/02 14:40:38;;;;;;;1999.90;999.90;;;;;;;32.28;27.60;99320.00;10023012;23;20023;-73
2022/08/02 14:44:40;;;;;;;1999.90;999.90;;;;;;;32.38;28.91;99312.75;10000341;23;20027;-73
2022/08/02 14:48:41;;;;;;;1999.90;999.90;;;;;;;32.30;27.75;99312.63;10021743;23;20053;-73
2022/08/02 14:52:44;;;;;;;1999.90;999.90;;;;;;;32.16;29.01;99304.03;10000934;23;20415;-73
2022/08/02 14:56:48;;;;;;;1999.90;999.90;;;;;;;31.98;28.78;99311.16;10026135;23;20098;-73
2022/08/02 15:00:50;;;;;;;1999.90;999.90;;;;;;;31.86;29.39;99301.56;10025359;23;20565;-74
2022/08/02 15:04:53;;;;;;;1999.90;999.90;;;;;;;31.79;29.05;99303.97;10026138;23;20090;-73
2022/08/02 15:08:54;;;;;;;1999.90;999.90;;;;;;;31.74;30.04;99303.53;10025535;23;20019;-73
2022/08/02 15:12:55;;;;;;;1999.90;999.90;;;;;;;31.67;29.63;99299.72;10041591;23;20030;-74
2022/08/02 15:16:57;;;;;;;1999.90;999.90;;;;;;;31.63;29.61;99298.31;9996393;23;20023;-75
2022/08/02 15:20:59;;;;;;;1999.90;999.90;;;;;;;31.52;29.35;99301.13;10026230;23;20350;-74
2022/08/02 15:25:15;;;;;;;1999.90;999.90;;;;;;;31.46;29.97;99297.19;10003834;23;20023;-76
2022/08/02 15:29:17;;;;;;;1999.90;999.90;;;;;;;31.33;29.48;99298.47;10027741;23;20299;-76
2022/08/02 15:33:19;;;;;;;1999.90;999.90;;;;;;;31.23;30.46;99288.56;9995983;23;20081;-76
2022/08/02 15:37:21;;;;;;;1999.90;999.90;;;;;;;31.10;29.92;99290.66;10026595;23;20118;-76
2022/08/02 15:41:26;;;;;;;1999.90;999.90;;;;;;;30.98;30.57;99289.91;9999867;23;20027;-76
2022/08/02 15:45:27;;;;;;;1999.90;999.90;;;;;;;30.94;30.26;99282.31;10023611;23;20026;-76
2022/08/02 15:49:29;;;;;;;1999.90;999.90;;;;;;;30.98;30.36;99284.56;10027186;23;20061;-76
2022/08/02 15:53:30;;;;;;;1999.90;999.90;;;;;;;30.96;29.69;99289.22;10025377;23;20042;-76
2022/08/02 15:57:32;;;;;;;1999.90;999.90;;;;;;;30.98;29.96;99284.56;10040925;23;20326;-76
2022/08/02 16:01:36;;;;;;;1999.90;999.90;;;;;;;31.07;30.36;99290.09;10020334;23;20378;-76
2022/08/02 16:05:43;;;;;;;1999.90;999.90;;;;;;;31.06;30.55;99285.69;10024184;23;20026;-76
2022/08/02 16:09:44;;;;;;;1999.90;999.90;;;;;;;30.98;29.78;99286.38;10001452;23;20114;-76
2022/08/02 16:13:48;;;;;;;1999.90;999.90;;;;;;;30.91;30.41;99286.09;10014372;23;20795;-76
2022/08/02 16:17:54;;;;;;;1999.90;999.90;;;;;;;30.88;29.78;99280.16;9996564;23;20033;-76
2022/08/02 16:21:55;;;;;;;1999.90;999.90;;;;;;;30.79;28.73;99272.94;9998945;23;20026;-76
2022/08/02 16:25:57;;;;;;;1999.90;999.90;;;;;;;30.66;28.65;99276.72;10025422;23;20698;-76
2022/08/02 16:29:58;;;;;;;1999.90;999.90;;;;;;;30.59;30.17;99275.56;10000788;23;20026;-76
2022/08/02 16:34:00;;;;;;;1999.90;999.90;;;;;;;30.56;30.27;99269.63;9993452;23;20030;-76
2022/08/02 16:38:02;;;;;;;1999.90;999.90;;;;;;;30.50;30.85;99270.16;10024570;23;20018;-76
2022/08/02 16:42:03;;;;;;;1999.90;999.90;;;;;;;30.39;30.81;99263.06;10024904;23;20022;-76
2022/08/02 16:46:05;;;;;;;1999.90;999.90;;;;;;;30.29;32.16;99263.03;9995184;23;20822;-76
2022/08/02 16:50:10;;;;;;;1999.90;999.90;;;;;;;30.17;31.68;99256.09;9996964;23;20371;-76
2022/08/02 16:54:12;;;;;;;1999.90;999.90;;;;;;;30.08;32.29;99260.41;10023495;23;20022;-76
2022/08/02 16:58:13;;;;;;;1999.90;999.90;;;;;;;29.98;32.13;99263.97;9975480;23;20026;-76
2022/08/02 17:02:15;;;;;;;1999.90;999.90;;;;;;;29.89;31.13;99259.44;10026072;23;20027;-76
2022/08/02 17:06:20;;;;;;;1999.90;999.90;;;;;;;29.80;34.23;99250.34;10014612;23;20054;-76
2022/08/02 17:10:30;;;;;;;1999.90;999.90;;;;;;;29.68;34.14;99257.63;10023433;23;20034;-76
2022/08/02 17:14:35;;;;;;;1999.90;999.90;;;;;;;29.62;33.41;99255.44;10025372;23;20523;-76
2022/08/02 17:18:56;;;;;;;1999.90;999.90;;;;;;;29.55;33.18;99250.75;10020276;23;20027;-76
2022/08/02 17:22:57;;;;;;;1999.90;999.90;;;;;;;29.53;31.91;99263.41;10000027;23;20040;-76
2022/08/02 17:27:01;;;;;;;1999.90;999.90;;;;;;;29.45;34.11;99256.91;9997849;23;20046;-76
2022/08/02 17:31:02;;;;;;;1999.90;999.90;;;;;;;29.39;34.24;99252.03;9993781;23;20030;-76
2022/08/02 17:35:05;;;;;;;1999.90;999.90;;;;;;;29.30;34.37;99255.47;9998587;23;20030;-76
2022/08/02 17:39:10;;;;;;;1999.90;999.90;;;;;;;29.19;34.77;99251.03;10025106;23;20354;-75
2022/08/02 17:43:12;;;;;;;1999.90;999.90;;;;;;;29.04;35.43;99252.28;9999555;23;20022;-75
2022/08/02 17:47:15;;;;;;;1999.90;999.90;;;;;;;28.92;35.33;99258.66;9993996;23;20026;-75
2022/08/02 17:51:18;;;;;;;1999.90;999.90;;;;;;;28.79;35.57;99255.25;10026139;23;20315;-75
2022/08/02 17:55:39;;;;;;;;;;;;;;;28.66;35.53;99255.41;10005175;23;20030;-75
2022/08/02 17:59:54;;;;;;;1999.90;999.90;;;;;;;28.47;37.15;99255.19;10000675;23;19918;-75
2022/08/02 18:04:16;;;;;;;1999.90;999.90;;;;;;;28.16;37.69;99248.75;10024078;23;20037;-75
2022/08/02 18:08:28;;;;;;;;;;;;;;;28.00;38.11;99249.94;10002988;23;20026;-75
2022/08/02 18:12:30;;;;;;;1999.90;999.90;;;;;;;27.77;39.02;99252.72;10025531;23;19922;-76